sensor_id;sensor_type;location;lat;lon;timestamp;P1;durP1;ratioP1;P2;durP2;ratioP2
1294;SDS011;640;48.310;11.728;2022-08-21T00:00:22;4.63;;;2.80;;
1294;SDS011;640;48.310;11.728;2022-08-21T00:02:53;7.07;;;2.83;;
1294;SDS011;640;48.310;11.728;2022-08-21T00:05:23;6.75;;;2.92;;
1294;SDS011;640;48.310;11.728;2022-08-21T00:07:53;12.45;;;2.97;;
1294;SDS011;640;48.310;11.728;2022-08-21T00:10:22;6.25;;;2.90;;
1294;SDS011;640;48.310;11.728;2022-08-21T00:12:51;4.88;;;2.50;;
1294;SDS011;640;48.310;11.728;2022-08-21T00:15:22;6.57;;;2.80;;
1294;SDS011;640;48.310;11.728;2022-08-21T00:17:53;9.45;;;2.92;;
1294;SDS011;640;48.310;11.728;2022-08-21T00:20:22;6.40;;;2.70;;
1294;SDS011;640;48.310;11.728;2022-08-21T00:22:51;5.45;;;3.00;;
1294;SDS011;640;48.310;11.728;2022-08-21T00:25:21;3.78;;;2.90;;
1294;SDS011;640;48.310;11.728;2022-08-21T00:30:22;5.78;;;2.83;;
1294;SDS011;640;48.310;11.728;2022-08-21T00:32:52;7.60;;;3.20;;
1294;SDS011;640;48.310;11.728;2022-08-21T00:35:23;5.53;;;2.90;;
1294;SDS011;640;48.310;11.728;2022-08-21T00:37:53;8.95;;;3.13;;
1294;SDS011;640;48.310;11.728;2022-08-21T00:40:23;7.15;;;3.28;;
1294;SDS011;640;48.310;11.728;2022-08-21T00:42:54;11.52;;;3.05;;
1294;SDS011;640;48.310;11.728;2022-08-21T00:45:24;10.75;;;3.00;;
1294;SDS011;640;48.310;11.728;2022-08-21T00:47:54;8.10;;;3.15;;
1294;SDS011;640;48.310;11.728;2022-08-21T00:50:23;5.28;;;3.10;;
1294;SDS011;640;48.310;11.728;2022-08-21T00:52:54;6.55;;;3.03;;
1294;SDS011;640;48.310;11.728;2022-08-21T00:55:23;4.83;;;2.80;;
1294;SDS011;640;48.310;11.728;2022-08-21T00:57:54;3.67;;;2.53;;
1294;SDS011;640;48.310;11.728;2022-08-21T01:00:26;4.32;;;2.38;;
1294;SDS011;640;48.310;11.728;2022-08-21T01:02:58;4.72;;;2.70;;
1294;SDS011;640;48.310;11.728;2022-08-21T01:05:33;6.57;;;2.72;;
1294;SDS011;640;48.310;11.728;2022-08-21T01:08:01;3.17;;;2.67;;
1294;SDS011;640;48.310;11.728;2022-08-21T01:10:30;6.07;;;2.60;;
1294;SDS011;640;48.310;11.728;2022-08-21T01:13:00;4.40;;;2.60;;
1294;SDS011;640;48.310;11.728;2022-08-21T01:15:31;5.07;;;2.70;;
1294;SDS011;640;48.310;11.728;2022-08-21T01:18:03;3.90;;;2.83;;
1294;SDS011;640;48.310;11.728;2022-08-21T01:20:31;6.55;;;2.90;;
1294;SDS011;640;48.310;11.728;2022-08-21T01:23:02;5.38;;;2.72;;
1294;SDS011;640;48.310;11.728;2022-08-21T01:25:31;3.72;;;2.55;;
1294;SDS011;640;48.310;11.728;2022-08-21T01:28:02;6.15;;;3.08;;
1294;SDS011;640;48.310;11.728;2022-08-21T01:30:35;5.47;;;2.85;;
1294;SDS011;640;48.310;11.728;2022-08-21T01:33:05;3.95;;;2.80;;
1294;SDS011;640;48.310;11.728;2022-08-21T01:35:34;5.43;;;2.72;;
1294;SDS011;640;48.310;11.728;2022-08-21T01:38:04;5.70;;;2.75;;
1294;SDS011;640;48.310;11.728;2022-08-21T01:40:32;5.60;;;2.80;;
1294;SDS011;640;48.310;11.728;2022-08-21T01:43:01;5.72;;;2.85;;
1294;SDS011;640;48.310;11.728;2022-08-21T01:45:30;6.22;;;3.10;;
1294;SDS011;640;48.310;11.728;2022-08-21T01:47:58;8.25;;;3.20;;
1294;SDS011;640;48.310;11.728;2022-08-21T01:50:27;7.70;;;3.20;;
1294;SDS011;640;48.310;11.728;2022-08-21T01:52:55;8.10;;;3.20;;
1294;SDS011;640;48.310;11.728;2022-08-21T01:55:26;6.30;;;3.05;;
1294;SDS011;640;48.310;11.728;2022-08-21T01:57:54;6.63;;;3.10;;
1294;SDS011;640;48.310;11.728;2022-08-21T02:00:23;9.32;;;2.97;;
1294;SDS011;640;48.310;11.728;2022-08-21T02:02:51;4.13;;;2.90;;
1294;SDS011;640;48.310;11.728;2022-08-21T02:05:20;8.95;;;3.20;;
1294;SDS011;640;48.310;11.728;2022-08-21T02:07:50;4.57;;;2.90;;
1294;SDS011;640;48.310;11.728;2022-08-21T02:10:21;4.63;;;2.90;;
1294;SDS011;640;48.310;11.728;2022-08-21T02:12:52;6.47;;;3.22;;
1294;SDS011;640;48.310;11.728;2022-08-21T02:15:21;5.25;;;2.78;;
1294;SDS011;640;48.310;11.728;2022-08-21T02:17:51;7.55;;;3.20;;
1294;SDS011;640;48.310;11.728;2022-08-21T02:20:22;4.65;;;3.05;;
1294;SDS011;640;48.310;11.728;2022-08-21T02:22:52;4.13;;;2.90;;
1294;SDS011;640;48.310;11.728;2022-08-21T02:25:21;4.88;;;3.00;;
1294;SDS011;640;48.310;11.728;2022-08-21T02:27:51;5.13;;;2.80;;
1294;SDS011;640;48.310;11.728;2022-08-21T02:30:22;4.47;;;2.85;;
1294;SDS011;640;48.310;11.728;2022-08-21T02:32:53;6.93;;;3.13;;
1294;SDS011;640;48.310;11.728;2022-08-21T02:35:21;6.57;;;3.22;;
1294;SDS011;640;48.310;11.728;2022-08-21T02:37:51;6.22;;;3.05;;
1294;SDS011;640;48.310;11.728;2022-08-21T02:40:25;6.00;;;2.90;;
1294;SDS011;640;48.310;11.728;2022-08-21T02:42:55;4.97;;;2.83;;
1294;SDS011;640;48.310;11.728;2022-08-21T02:45:24;5.35;;;3.30;;
1294;SDS011;640;48.310;11.728;2022-08-21T02:47:53;5.57;;;2.95;;
1294;SDS011;640;48.310;11.728;2022-08-21T02:50:24;9.65;;;3.20;;
1294;SDS011;640;48.310;11.728;2022-08-21T02:52:54;4.40;;;3.00;;
1294;SDS011;640;48.310;11.728;2022-08-21T02:55:23;7.50;;;3.30;;
1294;SDS011;640;48.310;11.728;2022-08-21T02:57:54;5.93;;;3.22;;
1294;SDS011;640;48.310;11.728;2022-08-21T03:00:25;5.13;;;3.42;;
1294;SDS011;640;48.310;11.728;2022-08-21T03:02:54;5.63;;;2.97;;
1294;SDS011;640;48.310;11.728;2022-08-21T03:05:24;6.15;;;2.92;;
1294;SDS011;640;48.310;11.728;2022-08-21T03:07:54;6.65;;;3.15;;
1294;SDS011;640;48.310;11.728;2022-08-21T03:10:22;4.20;;;2.88;;
1294;SDS011;640;48.310;11.728;2022-08-21T03:12:51;5.45;;;3.20;;
1294;SDS011;640;48.310;11.728;2022-08-21T03:15:22;4.63;;;3.05;;
1294;SDS011;640;48.310;11.728;2022-08-21T03:17:52;10.23;;;3.55;;
1294;SDS011;640;48.310;11.728;2022-08-21T03:20:22;5.35;;;3.17;;
1294;SDS011;640;48.310;11.728;2022-08-21T03:22:52;7.43;;;3.03;;
1294;SDS011;640;48.310;11.728;2022-08-21T03:25:22;4.90;;;2.95;;
1294;SDS011;640;48.310;11.728;2022-08-21T03:28:07;8.35;;;3.15;;
1294;SDS011;640;48.310;11.728;2022-08-21T03:30:41;5.07;;;2.95;;
1294;SDS011;640;48.310;11.728;2022-08-21T03:33:10;5.72;;;3.03;;
1294;SDS011;640;48.310;11.728;2022-08-21T03:35:41;3.85;;;2.85;;
1294;SDS011;640;48.310;11.728;2022-08-21T03:38:10;6.68;;;3.13;;
1294;SDS011;640;48.310;11.728;2022-08-21T03:40:40;5.22;;;2.92;;
1294;SDS011;640;48.310;11.728;2022-08-21T03:43:08;5.53;;;2.78;;
1294;SDS011;640;48.310;11.728;2022-08-21T03:45:37;3.40;;;2.75;;
1294;SDS011;640;48.310;11.728;2022-08-21T03:48:07;5.10;;;2.97;;
1294;SDS011;640;48.310;11.728;2022-08-21T03:50:41;3.88;;;3.40;;
1294;SDS011;640;48.310;11.728;2022-08-21T03:53:11;5.63;;;3.00;;
1294;SDS011;640;48.310;11.728;2022-08-21T03:55:44;5.90;;;3.35;;
1294;SDS011;640;48.310;11.728;2022-08-21T03:58:13;4.78;;;3.20;;
1294;SDS011;640;48.310;11.728;2022-08-21T04:00:43;3.20;;;2.90;;
1294;SDS011;640;48.310;11.728;2022-08-21T04:03:14;4.03;;;3.20;;
1294;SDS011;640;48.310;11.728;2022-08-21T04:05:42;4.65;;;3.40;;
1294;SDS011;640;48.310;11.728;2022-08-21T04:08:13;4.25;;;3.28;;
1294;SDS011;640;48.310;11.728;2022-08-21T04:10:42;5.63;;;3.22;;
1294;SDS011;640;48.310;11.728;2022-08-21T04:13:12;4.47;;;3.10;;
1294;SDS011;640;48.310;11.728;2022-08-21T04:15:41;5.78;;;3.05;;
1294;SDS011;640;48.310;11.728;2022-08-21T04:18:10;4.20;;;3.20;;
1294;SDS011;640;48.310;11.728;2022-08-21T04:20:39;5.15;;;3.10;;
1294;SDS011;640;48.310;11.728;2022-08-21T04:23:16;5.22;;;3.45;;
1294;SDS011;640;48.310;11.728;2022-08-21T04:25:50;6.10;;;3.30;;
1294;SDS011;640;48.310;11.728;2022-08-21T04:28:19;9.32;;;3.63;;
1294;SDS011;640;48.310;11.728;2022-08-21T04:30:49;5.55;;;3.40;;
1294;SDS011;640;48.310;11.728;2022-08-21T04:33:18;6.53;;;3.53;;
1294;SDS011;640;48.310;11.728;2022-08-21T04:35:49;3.70;;;3.13;;
1294;SDS011;640;48.310;11.728;2022-08-21T04:38:18;4.20;;;3.17;;
1294;SDS011;640;48.310;11.728;2022-08-21T04:40:47;3.42;;;2.95;;
1294;SDS011;640;48.310;11.728;2022-08-21T04:43:16;4.50;;;3.30;;
1294;SDS011;640;48.310;11.728;2022-08-21T04:45:45;7.03;;;3.28;;
1294;SDS011;640;48.310;11.728;2022-08-21T04:48:15;4.72;;;3.40;;
1294;SDS011;640;48.310;11.728;2022-08-21T04:50:47;3.65;;;3.10;;
1294;SDS011;640;48.310;11.728;2022-08-21T04:53:32;4.65;;;3.10;;
1294;SDS011;640;48.310;11.728;2022-08-21T04:56:02;3.92;;;3.10;;
1294;SDS011;640;48.310;11.728;2022-08-21T04:58:35;4.72;;;3.20;;
1294;SDS011;640;48.310;11.728;2022-08-21T05:01:04;5.00;;;3.30;;
1294;SDS011;640;48.310;11.728;2022-08-21T05:03:35;3.95;;;3.33;;
1294;SDS011;640;48.310;11.728;2022-08-21T05:06:07;4.47;;;3.63;;
1294;SDS011;640;48.310;11.728;2022-08-21T05:08:38;3.67;;;3.30;;
1294;SDS011;640;48.310;11.728;2022-08-21T05:11:07;3.97;;;3.60;;
1294;SDS011;640;48.310;11.728;2022-08-21T05:13:35;4.28;;;3.88;;
1294;SDS011;640;48.310;11.728;2022-08-21T05:16:04;3.28;;;2.97;;
1294;SDS011;640;48.310;11.728;2022-08-21T05:18:33;5.75;;;3.35;;
1294;SDS011;640;48.310;11.728;2022-08-21T05:21:01;3.20;;;2.90;;
1294;SDS011;640;48.310;11.728;2022-08-21T05:23:31;3.58;;;2.67;;
1294;SDS011;640;48.310;11.728;2022-08-21T05:26:00;3.20;;;2.33;;
1294;SDS011;640;48.310;11.728;2022-08-21T05:28:28;2.75;;;1.98;;
1294;SDS011;640;48.310;11.728;2022-08-21T05:30:57;5.38;;;2.20;;
1294;SDS011;640;48.310;11.728;2022-08-21T05:33:25;10.90;;;2.50;;
1294;SDS011;640;48.310;11.728;2022-08-21T05:35:54;3.08;;;2.20;;
1294;SDS011;640;48.310;11.728;2022-08-21T05:38:23;2.43;;;2.03;;
1294;SDS011;640;48.310;11.728;2022-08-21T05:40:55;2.17;;;1.98;;
1294;SDS011;640;48.310;11.728;2022-08-21T05:43:23;2.35;;;2.15;;
1294;SDS011;640;48.310;11.728;2022-08-21T05:45:52;6.00;;;2.33;;
1294;SDS011;640;48.310;11.728;2022-08-21T05:48:21;2.65;;;2.10;;
1294;SDS011;640;48.310;11.728;2022-08-21T05:50:51;2.55;;;2.33;;
1294;SDS011;640;48.310;11.728;2022-08-21T05:53:21;2.92;;;2.42;;
1294;SDS011;640;48.310;11.728;2022-08-21T05:55:50;3.60;;;2.50;;
1294;SDS011;640;48.310;11.728;2022-08-21T05:58:20;3.45;;;2.50;;
1294;SDS011;640;48.310;11.728;2022-08-21T06:00:50;4.50;;;2.33;;
1294;SDS011;640;48.310;11.728;2022-08-21T06:03:20;4.05;;;2.38;;
1294;SDS011;640;48.310;11.728;2022-08-21T06:05:49;2.65;;;2.28;;
1294;SDS011;640;48.310;11.728;2022-08-21T06:08:18;2.70;;;2.40;;
1294;SDS011;640;48.310;11.728;2022-08-21T06:10:47;3.78;;;2.50;;
1294;SDS011;640;48.310;11.728;2022-08-21T06:13:17;3.38;;;2.40;;
1294;SDS011;640;48.310;11.728;2022-08-21T06:15:48;4.47;;;2.43;;
1294;SDS011;640;48.310;11.728;2022-08-21T06:18:16;3.25;;;2.28;;
1294;SDS011;640;48.310;11.728;2022-08-21T06:20:45;3.05;;;2.33;;
1294;SDS011;640;48.310;11.728;2022-08-21T06:23:14;5.88;;;2.83;;
1294;SDS011;640;48.310;11.728;2022-08-21T06:25:42;3.28;;;2.67;;
1294;SDS011;640;48.310;11.728;2022-08-21T06:28:11;4.78;;;2.67;;
1294;SDS011;640;48.310;11.728;2022-08-21T06:30:39;5.07;;;2.58;;
1294;SDS011;640;48.310;11.728;2022-08-21T06:33:09;3.90;;;2.70;;
1294;SDS011;640;48.310;11.728;2022-08-21T06:38:07;4.70;;;2.97;;
1294;SDS011;640;48.310;11.728;2022-08-21T06:40:36;4.40;;;2.75;;
1294;SDS011;640;48.310;11.728;2022-08-21T06:43:13;3.80;;;2.92;;
1294;SDS011;640;48.310;11.728;2022-08-21T06:45:44;5.40;;;2.78;;
1294;SDS011;640;48.310;11.728;2022-08-21T06:48:14;4.03;;;3.20;;
1294;SDS011;640;48.310;11.728;2022-08-21T06:50:45;4.53;;;2.70;;
1294;SDS011;640;48.310;11.728;2022-08-21T06:53:14;5.03;;;2.88;;
1294;SDS011;640;48.310;11.728;2022-08-21T06:55:44;3.95;;;3.08;;
1294;SDS011;640;48.310;11.728;2022-08-21T06:58:13;3.85;;;3.10;;
1294;SDS011;640;48.310;11.728;2022-08-21T07:00:43;5.95;;;3.65;;
1294;SDS011;640;48.310;11.728;2022-08-21T07:03:21;6.35;;;3.42;;
1294;SDS011;640;48.310;11.728;2022-08-21T07:05:51;4.88;;;3.55;;
1294;SDS011;640;48.310;11.728;2022-08-21T07:08:19;5.53;;;3.40;;
1294;SDS011;640;48.310;11.728;2022-08-21T07:10:48;4.88;;;3.58;;
1294;SDS011;640;48.310;11.728;2022-08-21T07:13:17;4.30;;;3.58;;
1294;SDS011;640;48.310;11.728;2022-08-21T07:15:45;4.97;;;3.53;;
1294;SDS011;640;48.310;11.728;2022-08-21T07:18:13;4.00;;;3.03;;
1294;SDS011;640;48.310;11.728;2022-08-21T07:20:43;6.07;;;3.95;;
1294;SDS011;640;48.310;11.728;2022-08-21T07:23:12;5.13;;;3.92;;
1294;SDS011;640;48.310;11.728;2022-08-21T07:25:49;4.22;;;3.38;;
1294;SDS011;640;48.310;11.728;2022-08-21T07:28:18;4.50;;;3.85;;
1294;SDS011;640;48.310;11.728;2022-08-21T07:30:46;4.43;;;3.60;;
1294;SDS011;640;48.310;11.728;2022-08-21T07:33:18;5.78;;;3.88;;
1294;SDS011;640;48.310;11.728;2022-08-21T07:35:48;4.78;;;3.90;;
1294;SDS011;640;48.310;11.728;2022-08-21T07:38:16;5.90;;;3.67;;
1294;SDS011;640;48.310;11.728;2022-08-21T07:40:45;6.60;;;4.00;;
1294;SDS011;640;48.310;11.728;2022-08-21T07:43:15;5.45;;;4.15;;
1294;SDS011;640;48.310;11.728;2022-08-21T07:45:44;5.97;;;4.05;;
1294;SDS011;640;48.310;11.728;2022-08-21T07:48:13;6.90;;;4.18;;
1294;SDS011;640;48.310;11.728;2022-08-21T07:50:42;6.90;;;3.75;;
1294;SDS011;640;48.310;11.728;2022-08-21T07:53:12;5.20;;;3.95;;
1294;SDS011;640;48.310;11.728;2022-08-21T07:55:40;6.28;;;3.90;;
1294;SDS011;640;48.310;11.728;2022-08-21T07:58:08;6.18;;;4.28;;
1294;SDS011;640;48.310;11.728;2022-08-21T08:00:37;5.70;;;3.85;;
1294;SDS011;640;48.310;11.728;2022-08-21T08:03:05;7.25;;;4.53;;
1294;SDS011;640;48.310;11.728;2022-08-21T08:05:34;7.25;;;4.32;;
1294;SDS011;640;48.310;11.728;2022-08-21T08:08:03;7.97;;;4.43;;
1294;SDS011;640;48.310;11.728;2022-08-21T08:10:33;6.72;;;4.43;;
1294;SDS011;640;48.310;11.728;2022-08-21T08:15:36;6.63;;;4.00;;
1294;SDS011;640;48.310;11.728;2022-08-21T08:18:04;7.28;;;4.45;;
1294;SDS011;640;48.310;11.728;2022-08-21T08:20:33;6.25;;;4.68;;
1294;SDS011;640;48.310;11.728;2022-08-21T08:23:01;4.63;;;4.03;;
1294;SDS011;640;48.310;11.728;2022-08-21T08:25:30;6.68;;;4.55;;
1294;SDS011;640;48.310;11.728;2022-08-21T08:28:04;5.13;;;4.40;;
1294;SDS011;640;48.310;11.728;2022-08-21T08:30:43;4.78;;;4.30;;
1294;SDS011;640;48.310;11.728;2022-08-21T08:33:12;6.82;;;4.57;;
1294;SDS011;640;48.310;11.728;2022-08-21T08:35:41;5.63;;;4.30;;
1294;SDS011;640;48.310;11.728;2022-08-21T08:38:10;5.45;;;4.40;;
1294;SDS011;640;48.310;11.728;2022-08-21T08:40:44;7.68;;;4.93;;
1294;SDS011;640;48.310;11.728;2022-08-21T08:43:16;6.88;;;4.20;;
1294;SDS011;640;48.310;11.728;2022-08-21T08:45:46;5.53;;;4.68;;
1294;SDS011;640;48.310;11.728;2022-08-21T08:48:21;7.35;;;4.47;;
1294;SDS011;640;48.310;11.728;2022-08-21T08:51:02;5.70;;;4.60;;
1294;SDS011;640;48.310;11.728;2022-08-21T08:53:37;6.47;;;4.60;;
1294;SDS011;640;48.310;11.728;2022-08-21T08:56:13;5.97;;;5.22;;
1294;SDS011;640;48.310;11.728;2022-08-21T08:58:43;7.45;;;5.18;;
1294;SDS011;640;48.310;11.728;2022-08-21T09:01:14;5.97;;;4.68;;
1294;SDS011;640;48.310;11.728;2022-08-21T09:03:44;5.28;;;4.43;;
1294;SDS011;640;48.310;11.728;2022-08-21T09:06:18;7.10;;;4.32;;
1294;SDS011;640;48.310;11.728;2022-08-21T09:08:56;5.75;;;5.10;;
1294;SDS011;640;48.310;11.728;2022-08-21T09:11:32;6.15;;;4.55;;
1294;SDS011;640;48.310;11.728;2022-08-21T09:14:15;6.72;;;4.68;;
1294;SDS011;640;48.310;11.728;2022-08-21T09:16:53;6.78;;;4.75;;
1294;SDS011;640;48.310;11.728;2022-08-21T09:19:31;6.07;;;4.80;;
1294;SDS011;640;48.310;11.728;2022-08-21T09:22:07;7.05;;;4.63;;
1294;SDS011;640;48.310;11.728;2022-08-21T09:24:40;7.43;;;5.22;;
1294;SDS011;640;48.310;11.728;2022-08-21T09:27:18;12.43;;;5.50;;
1294;SDS011;640;48.310;11.728;2022-08-21T09:29:51;5.68;;;4.93;;
1294;SDS011;640;48.310;11.728;2022-08-21T09:32:22;7.25;;;5.07;;
1294;SDS011;640;48.310;11.728;2022-08-21T09:35:05;6.35;;;5.22;;
1294;SDS011;640;48.310;11.728;2022-08-21T09:37:44;5.53;;;5.00;;
1294;SDS011;640;48.310;11.728;2022-08-21T09:40:18;5.05;;;4.45;;
1294;SDS011;640;48.310;11.728;2022-08-21T09:42:54;5.07;;;4.53;;
1294;SDS011;640;48.310;11.728;2022-08-21T09:45:25;6.30;;;5.20;;
1294;SDS011;640;48.310;11.728;2022-08-21T09:48:09;8.52;;;5.20;;
1294;SDS011;640;48.310;11.728;2022-08-21T09:50:39;9.60;;;5.70;;
1294;SDS011;640;48.310;11.728;2022-08-21T09:53:14;6.23;;;4.70;;
1294;SDS011;640;48.310;11.728;2022-08-21T09:55:48;6.13;;;4.22;;
1294;SDS011;640;48.310;11.728;2022-08-21T09:58:39;6.38;;;4.57;;
1294;SDS011;640;48.310;11.728;2022-08-21T10:01:13;6.43;;;4.40;;
1294;SDS011;640;48.310;11.728;2022-08-21T10:03:43;6.70;;;4.00;;
1294;SDS011;640;48.310;11.728;2022-08-21T10:06:20;5.32;;;4.68;;
1294;SDS011;640;48.310;11.728;2022-08-21T10:08:50;7.85;;;4.40;;
1294;SDS011;640;48.310;11.728;2022-08-21T10:11:19;4.18;;;3.38;;
1294;SDS011;640;48.310;11.728;2022-08-21T10:13:53;5.88;;;4.78;;
1294;SDS011;640;48.310;11.728;2022-08-21T10:16:32;4.50;;;4.10;;
1294;SDS011;640;48.310;11.728;2022-08-21T10:19:08;5.32;;;4.68;;
1294;SDS011;640;48.310;11.728;2022-08-21T10:21:44;5.00;;;4.38;;
1294;SDS011;640;48.310;11.728;2022-08-21T10:24:19;5.07;;;4.00;;
1294;SDS011;640;48.310;11.728;2022-08-21T10:27:01;5.32;;;4.82;;
1294;SDS011;640;48.310;11.728;2022-08-21T10:29:41;5.90;;;4.10;;
1294;SDS011;640;48.310;11.728;2022-08-21T10:32:19;7.40;;;4.55;;
1294;SDS011;640;48.310;11.728;2022-08-21T10:34:56;3.45;;;3.15;;
1294;SDS011;640;48.310;11.728;2022-08-21T10:37:31;4.10;;;3.03;;
1294;SDS011;640;48.310;11.728;2022-08-21T10:40:07;5.22;;;3.55;;
1294;SDS011;640;48.310;11.728;2022-08-21T10:42:41;4.28;;;3.40;;
1294;SDS011;640;48.310;11.728;2022-08-21T10:45:22;5.38;;;3.40;;
1294;SDS011;640;48.310;11.728;2022-08-21T10:48:00;4.88;;;3.67;;
1294;SDS011;640;48.310;11.728;2022-08-21T10:50:34;4.40;;;4.00;;
1294;SDS011;640;48.310;11.728;2022-08-21T10:53:20;6.63;;;4.22;;
1294;SDS011;640;48.310;11.728;2022-08-21T10:55:59;4.40;;;3.72;;
1294;SDS011;640;48.310;11.728;2022-08-21T10:58:30;4.20;;;3.80;;
1294;SDS011;640;48.310;11.728;2022-08-21T11:01:03;4.95;;;3.63;;
1294;SDS011;640;48.310;11.728;2022-08-21T11:03:38;5.32;;;3.67;;
1294;SDS011;640;48.310;11.728;2022-08-21T11:06:11;5.82;;;3.72;;
1294;SDS011;640;48.310;11.728;2022-08-21T11:08:43;5.57;;;3.92;;
1294;SDS011;640;48.310;11.728;2022-08-21T11:11:14;5.13;;;4.03;;
1294;SDS011;640;48.310;11.728;2022-08-21T11:13:48;4.82;;;3.60;;
1294;SDS011;640;48.310;11.728;2022-08-21T11:16:22;4.35;;;3.95;;
1294;SDS011;640;48.310;11.728;2022-08-21T11:18:57;4.35;;;3.88;;
1294;SDS011;640;48.310;11.728;2022-08-21T11:21:36;4.13;;;3.72;;
1294;SDS011;640;48.310;11.728;2022-08-21T11:24:17;5.47;;;4.50;;
1294;SDS011;640;48.310;11.728;2022-08-21T11:26:56;5.18;;;4.15;;
1294;SDS011;640;48.310;11.728;2022-08-21T11:29:28;4.38;;;3.58;;
1294;SDS011;640;48.310;11.728;2022-08-21T11:32:01;3.60;;;3.10;;
1294;SDS011;640;48.310;11.728;2022-08-21T11:34:54;5.28;;;3.40;;
1294;SDS011;640;48.310;11.728;2022-08-21T11:37:33;4.23;;;3.17;;
1294;SDS011;640;48.310;11.728;2022-08-21T11:40:10;3.40;;;3.00;;
1294;SDS011;640;48.310;11.728;2022-08-21T11:42:59;4.25;;;3.15;;
1294;SDS011;640;48.310;11.728;2022-08-21T11:45:50;3.20;;;2.85;;
1294;SDS011;640;48.310;11.728;2022-08-21T11:48:26;3.67;;;2.80;;
1294;SDS011;640;48.310;11.728;2022-08-21T11:51:03;3.20;;;2.90;;
1294;SDS011;640;48.310;11.728;2022-08-21T11:53:37;4.57;;;2.92;;
1294;SDS011;640;48.310;11.728;2022-08-21T11:56:10;3.17;;;2.88;;
1294;SDS011;640;48.310;11.728;2022-08-21T11:58:50;3.95;;;2.65;;
1294;SDS011;640;48.310;11.728;2022-08-21T12:01:24;7.07;;;2.72;;
1294;SDS011;640;48.310;11.728;2022-08-21T12:03:55;4.30;;;3.45;;
1294;SDS011;640;48.310;11.728;2022-08-21T12:06:31;4.05;;;3.53;;
1294;SDS011;640;48.310;11.728;2022-08-21T12:09:03;3.50;;;3.05;;
1294;SDS011;640;48.310;11.728;2022-08-21T12:11:43;3.40;;;2.90;;
1294;SDS011;640;48.310;11.728;2022-08-21T12:14:15;4.43;;;2.95;;
1294;SDS011;640;48.310;11.728;2022-08-21T12:16:45;4.45;;;2.85;;
1294;SDS011;640;48.310;11.728;2022-08-21T12:19:27;5.15;;;2.70;;
1294;SDS011;640;48.310;11.728;2022-08-21T12:22:07;3.70;;;2.25;;
1294;SDS011;640;48.310;11.728;2022-08-21T12:24:38;3.33;;;2.20;;
1294;SDS011;640;48.310;11.728;2022-08-21T12:27:21;4.03;;;2.40;;
1294;SDS011;640;48.310;11.728;2022-08-21T12:29:54;3.20;;;2.72;;
1294;SDS011;640;48.310;11.728;2022-08-21T12:32:24;3.03;;;2.67;;
1294;SDS011;640;48.310;11.728;2022-08-21T12:35:06;3.22;;;2.50;;
1294;SDS011;640;48.310;11.728;2022-08-21T12:37:56;4.15;;;2.40;;
1294;SDS011;640;48.310;11.728;2022-08-21T12:40:29;4.60;;;2.92;;
1294;SDS011;640;48.310;11.728;2022-08-21T12:43:00;5.13;;;3.10;;
1294;SDS011;640;48.310;11.728;2022-08-21T12:45:31;3.22;;;2.80;;
1294;SDS011;640;48.310;11.728;2022-08-21T12:48:03;3.75;;;2.80;;
1294;SDS011;640;48.310;11.728;2022-08-21T12:50:35;3.65;;;3.03;;
1294;SDS011;640;48.310;11.728;2022-08-21T12:53:07;5.20;;;2.83;;
1294;SDS011;640;48.310;11.728;2022-08-21T12:55:46;3.28;;;2.53;;
1294;SDS011;640;48.310;11.728;2022-08-21T12:58:18;3.67;;;2.75;;
1294;SDS011;640;48.310;11.728;2022-08-21T13:00:49;4.68;;;2.95;;
1294;SDS011;640;48.310;11.728;2022-08-21T13:03:19;4.88;;;2.95;;
1294;SDS011;640;48.310;11.728;2022-08-21T13:05:49;4.10;;;2.70;;
1294;SDS011;640;48.310;11.728;2022-08-21T13:08:20;5.38;;;2.97;;
1294;SDS011;640;48.310;11.728;2022-08-21T13:10:55;3.08;;;2.45;;
1294;SDS011;640;48.310;11.728;2022-08-21T13:13:35;3.50;;;3.05;;
1294;SDS011;640;48.310;11.728;2022-08-21T13:16:12;3.78;;;2.88;;
1294;SDS011;640;48.310;11.728;2022-08-21T13:18:52;7.75;;;2.97;;
1294;SDS011;640;48.310;11.728;2022-08-21T13:21:27;4.63;;;3.00;;
1294;SDS011;640;48.310;11.728;2022-08-21T13:24:12;5.15;;;2.85;;
1294;SDS011;640;48.310;11.728;2022-08-21T13:27:14;4.38;;;2.70;;
1294;SDS011;640;48.310;11.728;2022-08-21T13:29:45;3.38;;;2.63;;
1294;SDS011;640;48.310;11.728;2022-08-21T13:32:21;3.53;;;2.50;;
1294;SDS011;640;48.310;11.728;2022-08-21T13:34:50;3.55;;;2.90;;
1294;SDS011;640;48.310;11.728;2022-08-21T13:37:20;4.60;;;2.90;;
1294;SDS011;640;48.310;11.728;2022-08-21T13:39:51;5.32;;;2.72;;
1294;SDS011;640;48.310;11.728;2022-08-21T13:42:20;5.97;;;2.75;;
1294;SDS011;640;48.310;11.728;2022-08-21T13:44:51;5.03;;;2.78;;
1294;SDS011;640;48.310;11.728;2022-08-21T13:47:21;2.90;;;2.60;;
1294;SDS011;640;48.310;11.728;2022-08-21T13:49:51;4.22;;;2.72;;
1294;SDS011;640;48.310;11.728;2022-08-21T13:52:25;4.30;;;2.60;;
1294;SDS011;640;48.310;11.728;2022-08-21T13:57:58;3.90;;;2.70;;
1294;SDS011;640;48.310;11.728;2022-08-21T14:00:29;3.35;;;2.47;;
1294;SDS011;640;48.310;11.728;2022-08-21T14:03:04;3.63;;;2.50;;
1294;SDS011;640;48.310;11.728;2022-08-21T14:05:35;3.20;;;2.80;;
1294;SDS011;640;48.310;11.728;2022-08-21T14:08:07;3.40;;;2.75;;
1294;SDS011;640;48.310;11.728;2022-08-21T14:10:42;3.13;;;2.42;;
1294;SDS011;640;48.310;11.728;2022-08-21T14:13:26;4.03;;;2.67;;
1294;SDS011;640;48.310;11.728;2022-08-21T14:16:00;3.03;;;2.60;;
1294;SDS011;640;48.310;11.728;2022-08-21T14:18:30;4.40;;;3.25;;
1294;SDS011;640;48.310;11.728;2022-08-21T14:21:03;4.20;;;2.80;;
1294;SDS011;640;48.310;11.728;2022-08-21T14:23:33;3.47;;;2.35;;
1294;SDS011;640;48.310;11.728;2022-08-21T14:26:03;4.25;;;2.65;;
1294;SDS011;640;48.310;11.728;2022-08-21T14:28:33;4.25;;;2.33;;
1294;SDS011;640;48.310;11.728;2022-08-21T14:31:10;2.80;;;2.25;;
1294;SDS011;640;48.310;11.728;2022-08-21T14:33:40;5.35;;;2.35;;
1294;SDS011;640;48.310;11.728;2022-08-21T14:36:09;2.80;;;2.33;;
1294;SDS011;640;48.310;11.728;2022-08-21T14:38:38;4.70;;;2.55;;
1294;SDS011;640;48.310;11.728;2022-08-21T14:41:11;2.88;;;2.25;;
1294;SDS011;640;48.310;11.728;2022-08-21T14:43:43;3.42;;;2.30;;
1294;SDS011;640;48.310;11.728;2022-08-21T14:46:12;4.60;;;2.60;;
1294;SDS011;640;48.310;11.728;2022-08-21T14:48:46;4.10;;;2.80;;
1294;SDS011;640;48.310;11.728;2022-08-21T14:51:14;3.83;;;2.65;;
1294;SDS011;640;48.310;11.728;2022-08-21T14:53:43;4.30;;;2.40;;
1294;SDS011;640;48.310;11.728;2022-08-21T14:56:13;3.60;;;2.40;;
1294;SDS011;640;48.310;11.728;2022-08-21T14:58:43;3.35;;;2.30;;
1294;SDS011;640;48.310;11.728;2022-08-21T15:01:13;5.35;;;2.53;;
1294;SDS011;640;48.310;11.728;2022-08-21T15:03:44;3.70;;;2.38;;
1294;SDS011;640;48.310;11.728;2022-08-21T15:06:12;3.13;;;2.50;;
1294;SDS011;640;48.310;11.728;2022-08-21T15:08:41;4.35;;;3.10;;
1294;SDS011;640;48.310;11.728;2022-08-21T15:11:11;3.35;;;2.80;;
1294;SDS011;640;48.310;11.728;2022-08-21T15:14:05;5.18;;;2.85;;
1294;SDS011;640;48.310;11.728;2022-08-21T15:16:36;4.18;;;2.75;;
1294;SDS011;640;48.310;11.728;2022-08-21T15:19:05;5.15;;;3.08;;
1294;SDS011;640;48.310;11.728;2022-08-21T15:21:33;3.45;;;2.83;;
1294;SDS011;640;48.310;11.728;2022-08-21T15:24:01;5.43;;;3.20;;
1294;SDS011;640;48.310;11.728;2022-08-21T15:26:33;3.60;;;2.58;;
1294;SDS011;640;48.310;11.728;2022-08-21T15:29:02;3.80;;;2.83;;
1294;SDS011;640;48.310;11.728;2022-08-21T15:31:32;3.33;;;2.60;;
1294;SDS011;640;48.310;11.728;2022-08-21T15:34:01;4.30;;;2.88;;
1294;SDS011;640;48.310;11.728;2022-08-21T15:36:30;4.72;;;2.97;;
1294;SDS011;640;48.310;11.728;2022-08-21T15:38:58;3.95;;;2.88;;
1294;SDS011;640;48.310;11.728;2022-08-21T15:41:27;4.10;;;3.00;;
1294;SDS011;640;48.310;11.728;2022-08-21T15:43:56;4.88;;;2.83;;
1294;SDS011;640;48.310;11.728;2022-08-21T15:46:25;5.43;;;2.72;;
1294;SDS011;640;48.310;11.728;2022-08-21T15:48:53;3.47;;;2.70;;
1294;SDS011;640;48.310;11.728;2022-08-21T15:51:25;4.97;;;2.78;;
1294;SDS011;640;48.310;11.728;2022-08-21T15:53:54;5.53;;;3.10;;